Time;durP1;ratioP1;P1;durP2;ratioP2;P2;SDS_P1;SDS_P2;PMS_P1;PMS_P2;Temp;Humidity;BMP_temperature;BMP_pressure;BME280_temperature;BME280_humidity;BME280_pressure;Samples;Min_cycle;Max_cycle;Signal;HPM_P1;HPM_P2
2022/04/10 00:00:22;;;;;;;14.27;4.40;;;;;;;-0.26;100.00;101740.09;5012238;28;20060;-88
2022/04/10 00:02:47;;;;;;;11.25;4.40;;;;;;;-0.34;100.00;101727.75;5012612;28;20032;-88
2022/04/10 00:05:13;;;;;;;12.13;5.00;;;;;;;-0.39;100.00;101724.81;5012892;28;20030;-87
2022/04/10 00:07:38;;;;;;;12.83;4.40;;;;;;;-0.39;100.00;101727.44;5012301;28;20029;-88
2022/04/10 00:10:04;;;;;;;10.17;4.20;;;;;;;-0.43;100.00;101732.19;5011658;28;20120;-88
2022/04/10 00:12:32;;;;;;;13.40;4.57;;;;;;;-0.51;100.00;101735.63;5012611;28;20026;-87
2022/04/10 00:14:57;;;;;;;8.10;4.55;;;;;;;-0.49;100.00;101738.13;5011898;28;20025;-87
2022/04/10 00:17:23;;;;;;;13.10;4.10;;;;;;;-0.50;100.00;101731.19;5020761;28;20029;-88
2022/04/10 00:19:48;;;;;;;16.27;4.60;;;;;;;-0.52;100.00;101739.25;5029940;28;20776;-88
2022/04/10 00:22:13;;;;;;;17.40;5.20;;;;;;;-0.57;100.00;101733.66;5029549;28;20029;-88
2022/04/10 00:24:39;;;;;;;12.37;4.10;;;;;;;-0.62;100.00;101735.94;5016641;28;20487;-88
2022/04/10 00:27:05;;;;;;;10.85;4.57;;;;;;;-0.63;100.00;101734.28;5011715;28;20529;-88
2022/04/10 00:29:31;;;;;;;9.23;4.50;;;;;;;-0.68;100.00;101726.88;5015910;28;20108;-88
2022/04/10 00:31:56;;;;;;;10.80;4.03;;;;;;;-0.68;100.00;101731.31;5016721;28;20101;-87
2022/04/10 00:34:22;;;;;;;18.17;5.47;;;;;;;-0.68;100.00;101728.69;5011837;28;20022;-88
2022/04/10 00:36:47;;;;;;;13.87;4.93;;;;;;;-0.66;100.00;101740.72;5011625;28;20388;-88
2022/04/10 00:39:12;;;;;;;12.90;4.83;;;;;;;-0.71;100.00;101736.91;5011362;28;20018;-87
2022/04/10 00:41:38;;;;;;;14.13;4.82;;;;;;;-0.74;100.00;101731.97;5011533;28;20029;-87
2022/04/10 00:44:06;;;;;;;21.77;5.33;;;;;;;-0.77;100.00;101728.69;5023968;28;20622;-88
2022/04/10 00:46:31;;;;;;;18.88;6.00;;;;;;;-0.79;100.00;101725.38;5029625;28;20021;-86
2022/04/10 00:48:56;;;;;;;15.07;5.00;;;;;;;-0.79;100.00;101728.00;5020440;28;20112;-85
2022/04/10 00:51:40;;;;;;;18.47;5.73;;;;;;;-0.82;100.00;101719.63;5025460;28;20026;-86
2022/04/10 00:54:29;;;;;;;14.27;5.70;;;;;;;-0.86;100.00;101721.72;5011703;28;20037;-86
2022/04/10 00:56:56;;;;;;;19.63;6.20;;;;;;;-0.84;100.00;101719.75;5012277;28;20076;-86
2022/04/10 00:59:21;;;;;;;20.63;6.20;;;;;;;-0.83;100.00;101718.78;5010754;28;20448;-86
2022/04/10 01:01:47;;;;;;;14.73;6.40;;;;;;;-0.80;100.00;101722.88;5010979;28;20029;-86
2022/04/10 01:04:14;;;;;;;13.38;6.13;;;;;;;-0.88;100.00;101728.94;5011711;28;20037;-87
2022/04/10 01:06:40;;;;;;;13.23;6.90;;;;;;;-0.81;100.00;101731.75;5011743;28;20020;-87
2022/04/10 01:09:06;;;;;;;28.65;6.55;;;;;;;-0.86;100.00;101713.81;5011638;28;20018;-87
2022/04/10 01:11:32;;;;;;;16.85;6.22;;;;;;;-0.88;100.00;101725.50;5011866;28;20048;-87
2022/04/10 01:13:58;;;;;;;15.13;6.78;;;;;;;-0.93;100.00;101721.53;5014421;28;20425;-87
2022/04/10 01:16:24;;;;;;;13.55;6.32;;;;;;;-0.92;100.00;101723.19;5015236;28;20061;-88
2022/04/10 01:18:50;;;;;;;13.53;6.97;;;;;;;-0.87;100.00;101724.53;5015378;28;20147;-88
2022/04/10 01:21:23;;;;;;;15.23;6.75;;;;;;;-0.83;100.00;101721.41;5020188;28;20026;-87
2022/04/10 01:23:50;;;;;;;18.33;7.20;;;;;;;-0.73;100.00;101723.09;5016173;28;20035;-87
2022/04/10 01:26:15;;;;;;;20.02;7.50;;;;;;;-0.71;100.00;101719.31;5011468;28;20029;-88
2022/04/10 01:29:00;;;;;;;15.33;7.53;;;;;;;-0.70;100.00;101718.31;5010148;28;20025;-87
2022/04/10 01:31:28;;;;;;;16.20;7.68;;;;;;;-0.73;100.00;101723.91;5011040;28;20026;-87
2022/04/10 01:33:55;;;;;;;18.58;6.68;;;;;;;-0.79;100.00;101722.75;5022112;28;20457;-87
2022/04/10 01:36:24;;;;;;;17.10;7.30;;;;;;;-0.79;100.00;101728.00;5011276;28;20116;-87
2022/04/10 01:38:52;;;;;;;18.52;7.32;;;;;;;-0.79;100.00;101724.53;5010518;28;20026;-87
2022/04/10 01:41:17;;;;;;;19.08;7.25;;;;;;;-0.80;100.00;101733.41;5018447;28;20034;-87
2022/04/10 01:43:46;;;;;;;15.93;6.93;;;;;;;-0.82;100.00;101725.69;5033193;28;20026;-87
2022/04/10 01:46:15;;;;;;;19.60;7.72;;;;;;;-0.83;100.00;101728.50;5032380;28;20017;-88
2022/04/10 01:48:41;;;;;;;15.05;7.18;;;;;;;-0.85;100.00;101727.81;5022852;28;20041;-87
2022/04/10 01:51:07;;;;;;;18.42;8.18;;;;;;;-0.87;100.00;101727.16;5037999;28;20018;-87
2022/04/10 01:53:33;;;;;;;19.47;8.03;;;;;;;-0.93;100.00;101732.06;5033049;28;20148;-90
2022/04/10 01:55:58;;;;;;;19.50;8.07;;;;;;;-0.90;100.00;101727.47;5011075;28;20615;-87
2022/04/10 01:58:23;;;;;;;18.83;8.70;;;;;;;-0.94;100.00;101735.69;5010419;28;20033;-87
2022/04/10 02:00:49;;;;;;;22.87;8.43;;;;;;;-0.98;100.00;101742.22;5011099;28;20105;-87
2022/04/10 02:03:14;;;;;;;24.10;8.88;;;;;;;-1.02;100.00;101740.09;5014650;28;20100;-88
2022/04/10 02:05:39;;;;;;;18.33;8.33;;;;;;;-1.03;100.00;101746.34;5019753;28;20101;-88
2022/04/10 02:08:05;;;;;;;17.00;7.87;;;;;;;-1.07;100.00;101745.84;5034705;28;20424;-87
2022/04/10 02:10:31;;;;;;;22.23;9.32;;;;;;;-1.10;100.00;101752.25;5037618;28;20085;-87
2022/04/10 02:12:56;;;;;;;19.10;9.23;;;;;;;-1.11;100.00;101758.47;5030480;28;20369;-88
2022/04/10 02:15:21;;;;;;;15.73;7.53;;;;;;;-1.15;100.00;101762.41;5034244;28;20037;-88
2022/04/10 02:17:47;;;;;;;12.60;7.60;;;;;;;-1.24;100.00;101747.53;5033265;28;20033;-87
2022/04/10 02:20:12;;;;;;;17.37;7.87;;;;;;;-1.29;100.00;101755.09;5033538;28;20023;-88
2022/04/10 02:22:37;;;;;;;15.97;7.60;;;;;;;-1.41;100.00;101744.00;5028101;28;20392;-88
2022/04/10 02:25:03;;;;;;;16.27;7.43;;;;;;;-1.47;100.00;101755.16;5016750;28;20091;-88
2022/04/10 02:27:28;;;;;;;14.13;7.90;;;;;;;-1.52;100.00;101753.00;5014057;28;20037;-87
2022/04/10 02:29:53;;;;;;;17.00;7.97;;;;;;;-1.52;100.00;101753.00;5012234;28;20671;-86
2022/04/10 02:32:19;;;;;;;15.33;7.80;;;;;;;-1.47;100.00;101747.25;5012056;28;20029;-86
2022/04/10 02:34:44;;;;;;;16.57;8.93;;;;;;;-1.46;100.00;101757.59;5015858;28;20477;-86
2022/04/10 02:37:09;;;;;;;17.00;8.23;;;;;;;-1.50;100.00;101758.91;5027819;28;20030;-86
2022/04/10 02:39:35;;;;;;;19.87;8.60;;;;;;;-1.58;100.00;101761.47;5012818;28;20296;-86
2022/04/10 02:42:00;;;;;;;13.60;8.53;;;;;;;-1.66;100.00;101758.81;5013637;28;20117;-86
2022/04/10 02:44:25;;;;;;;17.00;9.30;;;;;;;-1.69;100.00;101747.63;5023051;28;20032;-86
2022/04/10 02:46:51;;;;;;;18.17;9.10;;;;;;;-1.65;100.00;101760.47;5030042;28;20037;-86
2022/04/10 02:49:16;;;;;;;16.27;9.17;;;;;;;-1.66;100.00;101764.88;5015462;28;20040;-86
2022/04/10 02:51:41;;;;;;;18.92;9.18;;;;;;;-1.72;100.00;101760.22;5012192;28;20061;-86
2022/04/10 02:54:06;;;;;;;17.50;9.83;;;;;;;-1.67;100.00;101771.13;5013518;28;20551;-86
2022/04/10 02:56:32;;;;;;;15.87;8.83;;;;;;;-1.70;100.00;101769.63;5013499;28;20026;-85
2022/04/10 02:58:57;;;;;;;16.13;9.10;;;;;;;-1.73;100.00;101764.66;5013048;28;20032;-86
2022/04/10 03:01:22;;;;;;;22.47;9.83;;;;;;;-1.75;100.00;101771.06;5047599;28;20033;-86
2022/04/10 03:03:47;;;;;;;17.90;9.00;;;;;;;-1.81;100.00;101776.91;5051707;28;20041;-86
2022/04/10 03:06:13;;;;;;;28.87;9.27;;;;;;;-1.89;100.00;101767.19;5038360;28;20052;-86
2022/04/10 03:08:38;;;;;;;17.97;8.97;;;;;;;-1.94;100.00;101769.41;5027460;28;20575;-86
2022/04/10 03:11:03;;;;;;;15.30;9.27;;;;;;;-1.97;100.00;101778.44;5018983;28;20029;-86
2022/04/10 03:13:29;;;;;;;18.58;9.13;;;;;;;-2.04;100.00;101769.50;5034571;28;20029;-86
2022/04/10 03:15:54;;;;;;;18.67;9.03;;;;;;;-2.08;100.00;101774.25;5033595;28;20022;-85
2022/04/10 03:18:20;;;;;;;17.50;8.90;;;;;;;-2.13;100.00;101777.31;5033823;28;20067;-86
2022/04/10 03:20:45;;;;;;;19.45;8.40;;;;;;;-2.17;100.00;101777.75;5030239;28;20480;-86
2022/04/10 03:23:10;;;;;;;19.47;8.70;;;;;;;-2.22;100.00;101772.16;5014280;28;20044;-86
2022/04/10 03:25:36;;;;;;;16.63;8.33;;;;;;;-2.28;100.00;101774.38;5023002;28;20018;-86
2022/04/10 03:28:02;;;;;;;17.90;9.88;;;;;;;-2.28;100.00;101779.63;5017619;28;20091;-87
2022/04/10 03:30:28;;;;;;;16.85;8.88;;;;;;;-2.28;100.00;101782.25;5020897;28;20436;-86
2022/04/10 03:32:53;;;;;;;19.77;10.03;;;;;;;-2.30;100.00;101778.94;5012915;28;20018;-86
2022/04/10 03:35:18;;;;;;;16.90;9.33;;;;;;;-2.34;100.00;101782.03;5013663;28;20044;-86
2022/04/10 03:37:44;;;;;;;17.33;10.07;;;;;;;-2.33;100.00;101787.13;5019790;28;20030;-86
2022/04/10 03:40:10;;;;;;;13.70;8.73;;;;;;;-2.35;100.00;101781.19;5023089;28;20503;-86
2022/04/10 03:42:39;;;;;;;15.70;9.43;;;;;;;-2.30;100.00;101778.94;5029515;28;20029;-85
2022/04/10 03:45:09;;;;;;;17.90;9.63;;;;;;;-2.31;100.00;101782.56;5035578;28;20487;-85
2022/04/10 03:47:35;;;;;;;18.20;9.30;;;;;;;-2.29;100.00;101783.22;5052516;28;20503;-86
2022/04/10 03:50:00;;;;;;;16.92;9.05;;;;;;;-2.29;100.00;101785.84;5048945;28;20025;-86
2022/04/10 03:52:26;;;;;;;18.13;8.97;;;;;;;-2.27;100.00;101788.31;5012739;28;20049;-85
2022/04/10 03:54:51;;;;;;;19.10;9.37;;;;;;;-2.30;100.00;101789.47;5013765;28;20057;-86
2022/04/10 03:57:16;;;;;;;18.33;8.83;;;;;;;-2.28;100.00;101792.75;5030674;28;20025;-86
2022/04/10 03:59:41;;;;;;;16.27;8.57;;;;;;;-2.24;100.00;101795.09;5020419;28;20573;-86
2022/04/10 04:02:07;;;;;;;18.17;9.73;;;;;;;-2.20;100.00;101799.91;5028878;28;20112;-85
2022/04/10 04:04:35;;;;;;;16.75;8.55;;;;;;;-2.18;100.00;101799.75;5018223;28;20029;-86
2022/04/10 04:07:01;;;;;;;18.83;8.53;;;;;;;-2.18;100.00;101797.94;5012594;28;20018;-85
2022/04/10 04:09:26;;;;;;;18.33;9.17;;;;;;;-2.16;100.00;101805.66;5011701;28;20277;-85
2022/04/10 04:11:51;;;;;;;16.07;8.93;;;;;;;-2.17;100.00;101801.38;5011518;28;20377;-85
2022/04/10 04:14:17;;;;;;;19.77;9.30;;;;;;;-2.15;100.00;101802.91;5013553;28;20033;-86
2022/04/10 04:16:42;;;;;;;16.77;9.03;;;;;;;-2.13;100.00;101808.84;5016838;28;20072;-87
2022/04/10 04:19:07;;;;;;;19.77;8.47;;;;;;;-2.22;100.00;101801.84;5021182;28;21317;-89
2022/04/10 04:21:33;;;;;;;18.20;9.73;;;;;;;-2.19;100.00;101806.00;5022510;28;20034;-89
2022/04/10 04:23:58;;;;;;;18.40;8.93;;;;;;;-2.23;100.00;101812.50;5013825;28;20113;-88
2022/04/10 04:26:23;;;;;;;15.47;8.47;;;;;;;-2.31;100.00;101808.00;5012301;28;20171;-88
2022/04/10 04:28:49;;;;;;;17.80;8.63;;;;;;;-2.37;100.00;101801.50;5011541;28;20029;-88
2022/04/10 04:31:14;;;;;;;17.10;9.40;;;;;;;-2.38;100.00;101801.69;5011605;28;20022;-87
2022/04/10 04:33:39;;;;;;;22.33;8.97;;;;;;;-2.46;100.00;101802.41;5011732;28;20033;-87
2022/04/10 04:36:05;;;;;;;14.80;8.38;;;;;;;-2.46;100.00;101802.41;5012230;28;20103;-87
2022/04/10 04:38:30;;;;;;;17.17;8.23;;;;;;;-2.49;100.00;101811.41;5015802;28;20006;-87
2022/04/10 04:40:55;;;;;;;14.20;8.50;;;;;;;-2.50;100.00;101811.53;5025270;28;20350;-89
2022/04/10 04:43:21;;;;;;;16.83;8.43;;;;;;;-2.51;100.00;101808.13;5012932;28;20069;-88
2022/04/10 04:45:46;;;;;;;15.60;7.63;;;;;;;-2.57;100.00;101806.06;5011407;28;20022;-88
2022/04/10 04:48:11;;;;;;;18.03;8.13;;;;;;;-2.62;100.00;101806.50;5012958;28;20471;-88
2022/04/10 04:50:37;;;;;;;17.80;8.33;;;;;;;-2.59;100.00;101814.09;5013640;28;20032;-87
2022/04/10 04:53:02;;;;;;;15.00;7.90;;;;;;;-2.61;100.00;101818.66;5012659;28;20057;-89
2022/04/10 04:55:27;;;;;;;18.30;8.20;;;;;;;-2.63;100.00;101820.59;5010751;28;20026;-89
2022/04/10 04:57:53;;;;;;;15.38;7.72;;;;;;;-2.68;100.00;101822.81;5028936;28;20026;-88
2022/04/10 05:00:19;;;;;;;14.47;7.83;;;;;;;-2.63;100.00;101820.59;5019734;28;20032;-89
2022/04/10 05:02:44;;;;;;;14.48;8.00;;;;;;;-2.62;100.00;101829.28;5011132;28;20073;-88
2022/04/10 05:05:10;;;;;;;13.37;8.23;;;;;;;-2.62;100.00;101821.41;5011215;28;20038;-88
2022/04/10 05:07:35;;;;;;;20.30;7.53;;;;;;;-2.62;100.00;101829.28;5011058;28;20113;-89
2022/04/10 05:10:00;;;;;;;18.77;8.17;;;;;;;-2.59;100.00;101827.22;5010730;28;20108;-88
2022/04/10 05:12:26;;;;;;;15.95;8.43;;;;;;;-2.56;100.00;101830.53;5012036;28;20026;-89
2022/04/10 05:14:51;;;;;;;14.33;8.23;;;;;;;-2.50;100.00;101843.91;5011162;28;20026;-88
2022/04/10 05:17:16;;;;;;;14.33;8.37;;;;;;;-2.52;100.00;101837.13;5025971;28;21797;-88
2022/04/10 05:19:42;;;;;;;16.00;8.90;;;;;;;-2.46;100.00;101844.41;5010462;28;20022;-89
2022/04/10 05:22:07;;;;;;;14.97;7.63;;;;;;;-2.41;100.00;101850.06;5024665;28;20025;-87
2022/04/10 05:24:32;;;;;;;15.80;8.37;;;;;;;-2.41;100.00;101850.06;5017853;28;20026;-88
2022/04/10 05:26:58;;;;;;;18.33;8.43;;;;;;;-2.40;100.00;101845.63;5017086;28;20299;-89
2022/04/10 05:29:23;;;;;;;18.87;8.97;;;;;;;-2.29;100.00;101848.88;5029802;28;20037;-89
2022/04/10 05:31:49;;;;;;;18.10;8.23;;;;;;;-2.21;100.00;101850.75;5030489;28;20036;-89
2022/04/10 05:34:15;;;;;;;16.05;8.10;;;;;;;-2.14;100.00;101859.72;5028978;28;20028;-89
2022/04/10 05:36:40;;;;;;;17.33;8.10;;;;;;;-2.09;100.00;101858.41;5020654;28;20034;-87
2022/04/10 05:39:05;;;;;;;20.93;9.00;;;;;;;-2.07;100.00;101862.56;5022668;28;20018;-92
2022/04/10 05:41:31;;;;;;;14.40;8.23;;;;;;;-2.04;100.00;101859.66;5031591;28;20603;-91
2022/04/10 05:43:56;;;;;;;14.30;7.77;;;;;;;-1.98;100.00;101866.09;5032055;28;20113;-91
2022/04/10 05:46:21;;;;;;;15.70;8.27;;;;;;;-1.93;100.00;101868.28;5031701;28;20021;-92
2022/04/10 05:48:46;;;;;;;21.40;8.40;;;;;;;-1.88;100.00;101872.09;5029268;28;20037;-92
2022/04/10 05:51:12;;;;;;;16.47;8.27;;;;;;;-1.85;100.00;101878.88;5031238;28;20028;-92
2022/04/10 05:53:39;;;;;;;15.83;8.83;;;;;;;-1.79;100.00;101877.47;5020258;28;20124;-89
2022/04/10 05:56:04;;;;;;;15.85;8.40;;;;;;;-1.67;100.00;101881.50;5030339;28;20053;-90
2022/04/10 05:58:29;;;;;;;15.03;7.87;;;;;;;-1.54;100.00;101886.38;5029309;28;20076;-91
2022/04/10 06:00:55;;;;;;;21.17;9.27;;;;;;;-1.30;100.00;101890.22;5031176;28;20030;-91
2022/04/10 06:03:21;;;;;;;20.50;9.32;;;;;;;-1.00;100.00;101890.72;5031562;28;20029;-92
2022/04/10 06:05:46;;;;;;;25.40;10.43;;;;;;;-0.62;100.00;101901.81;5030789;28;20542;-94
2022/04/10 06:08:12;;;;;;;27.00;10.10;;;;;;;-0.40;100.00;101899.63;5028759;28;20036;-93
2022/04/10 06:10:37;;;;;;;20.27;7.63;;;;;;;-0.37;100.00;101907.22;5008347;28;20036;-91
2022/04/10 06:13:09;;;;;;;16.75;8.15;;;;;;;-0.43;100.00;101913.91;5031832;28;20037;-89
2022/04/10 06:15:36;;;;;;;15.63;7.10;;;;;;;-0.43;100.00;101910.47;5030556;28;20028;-89
2022/04/10 06:18:02;;;;;;;15.63;7.13;;;;;;;-0.37;100.00;101920.38;5017851;28;20338;-91
2022/04/10 06:20:30;;;;;;;11.32;6.70;;;;;;;-0.37;100.00;101923.81;5017163;28;20030;-89
2022/04/10 06:22:55;;;;;;;19.00;7.85;;;;;;;-0.33;100.00;101916.41;5026947;28;20500;-89
2022/04/10 06:25:21;;;;;;;18.70;7.13;;;;;;;-0.27;100.00;101923.69;5025714;28;20080;-88
2022/04/10 06:27:46;;;;;;;18.50;6.67;;;;;;;-0.19;100.00;101921.09;5016084;28;20079;-90
2022/04/10 06:30:12;;;;;;;20.23;7.97;;;;;;;-0.16;100.00;101922.59;5012023;28;20030;-89
2022/04/10 06:32:39;;;;;;;15.43;7.00;;;;;;;-0.07;100.00;101933.97;5020720;28;20079;-90
2022/04/10 06:35:05;;;;;;;18.63;7.22;;;;;;;0.05;100.00;101943.22;5013519;28;20115;-89
2022/04/10 06:37:31;;;;;;;22.95;8.18;;;;;;;0.16;100.00;101934.22;5015871;28;20121;-91
2022/04/10 06:39:56;;;;;;;19.13;7.57;;;;;;;0.28;100.00;101945.28;5010628;28;20021;-90
2022/04/10 06:42:21;;;;;;;19.43;7.77;;;;;;;0.36;100.00;101945.31;5010895;28;20411;-90
2022/04/10 06:44:46;;;;;;;16.73;7.67;;;;;;;0.47;100.00;101940.69;5009262;28;20029;-90
2022/04/10 06:47:12;;;;;;;17.67;6.73;;;;;;;0.56;100.00;101944.97;5011325;28;20029;-90
2022/04/10 06:49:37;;;;;;;24.37;7.87;;;;;;;0.69;100.00;101949.78;5026402;28;20087;-88
2022/04/10 06:52:03;;;;;;;20.93;7.00;;;;;;;0.86;100.00;101955.88;5021104;28;20332;-91
2022/04/10 06:54:28;;;;;;;15.70;6.30;;;;;;;1.00;100.00;101957.84;5015185;28;20048;-93
2022/04/10 06:56:53;;;;;;;15.37;6.73;;;;;;;1.16;100.00;101950.91;5014700;28;20617;-92
2022/04/10 06:59:19;;;;;;;16.93;7.23;;;;;;;1.30;100.00;101957.34;5014324;28;20367;-91
2022/04/10 07:01:44;;;;;;;19.33;7.07;;;;;;;1.42;100.00;101955.16;5030338;28;20030;-91
2022/04/10 07:04:09;;;;;;;17.23;6.47;;;;;;;1.50;100.00;101947.19;5035112;28;20069;-92
2022/04/10 07:06:35;;;;;;;19.00;6.07;;;;;;;1.66;100.00;101960.34;5038266;28;20009;-95
2022/04/10 07:09:00;;;;;;;17.67;6.37;;;;;;;1.80;100.00;101964.13;5040168;28;20025;-91
2022/04/10 07:11:25;;;;;;;16.90;6.93;;;;;;;1.93;100.00;101968.88;5056904;28;20152;-92
2022/04/10 07:13:51;;;;;;;16.42;6.10;;;;;;;2.06;100.00;101964.84;5048356;28;20089;-93
2022/04/10 07:16:16;;;;;;;19.87;5.70;;;;;;;2.19;100.00;101951.06;5021976;28;20037;-91
2022/04/10 07:18:41;;;;;;;13.80;5.67;;;;;;;2.31;100.00;101965.53;5034303;28;20041;-93
2022/04/10 07:21:07;;;;;;;15.67;5.93;;;;;;;2.42;100.00;101964.28;5038509;28;20037;-90
2022/04/10 07:23:46;;;;;;;13.17;5.37;;;;;;;2.47;100.00;101967.25;5033192;28;20056;-90
2022/04/10 07:26:14;;;;;;;10.60;4.95;;;;;;;2.56;100.00;101968.81;5027515;28;20025;-90
2022/04/10 07:28:40;;;;;;;14.82;5.85;;;;;;;2.67;100.00;101969.44;5022067;28;20132;-93
2022/04/10 07:31:09;;;;;;;18.35;5.88;;;;;;;2.81;100.00;101968.66;5036208;28;20036;-90
2022/04/10 07:33:35;;;;;;;14.25;4.70;;;;;;;3.03;100.00;101971.47;5037945;28;20037;-90
2022/04/10 07:36:01;;;;;;;16.27;5.00;;;;;;;3.15;100.00;101977.97;5026293;28;20044;-89
2022/04/10 07:38:26;;;;;;;14.87;4.37;;;;;;;3.25;99.87;101976.91;5023074;28;20529;-89
2022/04/10 07:40:51;;;;;;;9.60;4.10;;;;;;;3.31;98.37;101982.28;5014894;28;20037;-89
2022/04/10 07:43:16;;;;;;;7.75;4.00;;;;;;;3.38;99.27;101982.38;5024544;28;20118;-88
2022/04/10 07:48:26;;;;;;;10.07;4.30;;;;;;;3.53;98.37;101992.19;5039654;28;20594;-88
2022/04/10 07:50:51;;;;;;;11.87;4.27;;;;;;;3.64;97.17;101997.03;5036962;28;20303;-88
2022/04/10 07:53:16;;;;;;;11.10;4.47;;;;;;;3.69;96.65;101996.50;5013483;28;20105;-89
2022/04/10 07:55:41;;;;;;;13.23;4.40;;;;;;;3.79;96.89;101997.84;5014287;28;20396;-88
2022/04/10 07:58:07;;;;;;;12.13;3.70;;;;;;;3.91;94.49;102002.69;5016196;28;20030;-89
2022/04/10 08:00:32;;;;;;;9.43;3.50;;;;;;;4.03;93.76;102016.31;5011200;28;20357;-88
2022/04/10 08:03:01;;;;;;;8.43;3.35;;;;;;;4.18;94.78;102011.81;5011615;28;20433;-89
2022/04/10 08:05:26;;;;;;;8.10;3.38;;;;;;;4.31;92.05;102020.91;5014059;28;20037;-89
2022/04/10 08:07:52;;;;;;;12.50;3.67;;;;;;;4.43;90.94;102022.09;5030512;28;20112;-88
2022/04/10 08:10:17;;;;;;;12.73;3.60;;;;;;;4.52;90.00;102018.31;5029480;28;20025;-89
2022/04/10 08:12:43;;;;;;;10.07;3.45;;;;;;;4.72;91.05;102016.88;5029118;28;20473;-89
2022/04/10 08:15:11;;;;;;;14.13;3.58;;;;;;;4.88;88.83;102027.25;5032340;28;20021;-88
2022/04/10 08:17:37;;;;;;;8.90;3.30;;;;;;;5.11;88.93;102021.72;5024731;28;20037;-88
2022/04/10 08:20:04;;;;;;;21.27;4.43;;;;;;;5.22;88.34;102020.38;5028048;28;20307;-88
2022/04/10 08:22:31;;;;;;;11.45;3.55;;;;;;;5.50;87.39;102032.84;5040786;28;20060;-88
2022/04/10 08:25:01;;;;;;;6.60;2.63;;;;;;;5.83;85.95;102037.56;5016312;28;20026;-89
2022/04/10 08:27:26;;;;;;;9.68;2.00;;;;;;;6.14;79.59;102031.00;5027614;28;20025;-88
2022/04/10 08:29:51;;;;;;;6.77;2.13;;;;;;;6.56;79.92;102044.25;5024526;28;20045;-89
2022/04/10 08:32:17;;;;;;;10.10;2.27;;;;;;;6.99;78.00;102043.09;5022706;28;20566;-90
2022/04/10 08:34:42;;;;;;;4.40;1.80;;;;;;;7.25;74.91;102039.59;5022285;28;20025;-90
2022/04/10 08:37:07;;;;;;;9.63;1.90;;;;;;;7.43;74.59;102035.50;5027497;28;20444;-90
2022/04/10 08:39:34;;;;;;;9.73;1.43;;;;;;;7.63;71.63;102045.31;5030971;28;20075;-90
2022/04/10 08:42:02;;;;;;;4.43;1.27;;;;;;;7.70;70.42;102044.28;5031425;28;20036;-90
2022/04/10 08:44:29;;;;;;;7.38;1.50;;;;;;;7.51;68.24;102053.13;5031054;28;20041;-90
2022/04/10 08:46:55;;;;;;;6.38;2.17;;;;;;;7.18;70.26;102053.97;5019688;28;20064;-90
2022/04/10 08:49:25;;;;;;;7.15;1.98;;;;;;;6.86;71.66;102057.19;5031528;28;20041;-89
2022/04/10 08:51:53;;;;;;;8.60;2.30;;;;;;;6.51;73.53;102063.50;5028050;28;20029;-89
2022/04/10 08:54:22;;;;;;;8.73;2.30;;;;;;;6.32;75.22;102075.69;5012881;28;20956;-87
2022/04/10 08:56:47;;;;;;;8.25;2.10;;;;;;;6.21;75.62;102069.09;5015526;28;20180;-88
2022/04/10 08:59:13;;;;;;;10.60;2.38;;;;;;;6.11;75.98;102071.31;5029554;28;20112;-88
2022/04/10 09:01:38;;;;;;;8.67;2.27;;;;;;;6.04;76.24;102075.75;5027200;28;20032;-89
2022/04/10 09:04:04;;;;;;;6.40;2.20;;;;;;;5.95;75.82;102075.06;5011822;28;20176;-88
2022/04/10 09:06:29;;;;;;;8.43;2.28;;;;;;;5.95;76.80;102066.28;5022024;28;20045;-89
2022/04/10 09:09:12;;;;;;;5.07;2.40;;;;;;;6.08;76.23;102069.03;5030745;28;20388;-88
2022/04/10 09:11:39;;;;;;;7.60;2.70;;;;;;;6.25;76.20;102074.03;5011819;28;20049;-89
2022/04/10 09:14:06;;;;;;;5.80;1.98;;;;;;;6.39;76.70;102070.38;5011329;28;20524;-88
2022/04/10 09:16:31;;;;;;;6.72;1.70;;;;;;;6.59;72.78;102074.97;5021653;28;20033;-89
2022/04/10 09:19:04;;;;;;;10.47;1.83;;;;;;;6.74;71.92;102070.31;5030430;28;20033;-88
2022/04/10 09:21:32;;;;;;;12.02;2.28;;;;;;;6.87;72.59;102079.34;5030878;28;20027;-88
2022/04/10 09:24:09;;;;;;;11.25;1.77;;;;;;;7.00;69.87;102071.38;5027155;28;20022;-88
2022/04/10 09:26:48;;;;;;;7.50;1.40;;;;;;;7.20;69.31;102074.06;5027850;28;20026;-88
2022/04/10 09:29:16;;;;;;;7.30;1.25;;;;;;;7.42;66.22;102072.03;5028407;28;20396;-93
2022/04/10 09:31:42;;;;;;;5.95;1.20;;;;;;;7.62;64.64;102067.69;5015442;28;20156;-89
2022/04/10 09:34:09;;;;;;;5.13;1.47;;;;;;;7.80;65.35;102061.72;5036031;28;20017;-88
2022/04/10 09:36:36;;;;;;;9.88;1.50;;;;;;;7.98;62.39;102064.53;5037706;28;20053;-89
2022/04/10 09:39:10;;;;;;;3.83;1.00;;;;;;;8.14;61.45;102070.44;5015650;28;20026;-91
2022/04/10 09:41:36;;;;;;;5.60;0.93;;;;;;;8.32;59.89;102070.59;5030695;28;20051;-88
2022/04/10 09:44:17;;;;;;;4.82;1.17;;;;;;;8.60;58.70;102063.28;5017043;28;20486;-90
2022/04/10 09:46:43;;;;;;;5.95;1.08;;;;;;;8.94;58.60;102072.75;5031433;28;20072;-90
2022/04/10 09:49:17;;;;;;;3.72;1.00;;;;;;;9.05;57.88;102059.72;5032310;28;20087;-90
2022/04/10 09:52:07;;;;;;;5.07;1.52;;;;;;;9.12;60.22;102073.88;5030303;28;20136;-93
2022/04/10 09:54:39;;;;;;;5.53;1.13;;;;;;;8.92;57.47;102077.50;5010815;28;20037;-89
2022/04/10 09:57:09;;;;;;;6.03;1.27;;;;;;;8.96;56.39;102075.19;5024437;28;20357;-91
2022/04/10 09:59:48;;;;;;;10.18;1.30;;;;;;;9.08;55.87;102067.31;5014766;28;20037;-90
2022/04/10 10:02:14;;;;;;;5.25;1.38;;;;;;;9.30;54.01;102066.94;5010788;28;20027;-90
2022/04/10 10:04:41;;;;;;;3.42;0.88;;;;;;;9.53;55.30;102064.44;5013373;28;20032;-91
2022/04/10 10:07:15;;;;;;;4.90;0.88;;;;;;;9.72;53.46;102061.78;5011175;28;20026;-91
2022/04/10 10:09:41;;;;;;;5.15;0.80;;;;;;;9.83;51.63;102068.28;5027297;28;20079;-89
2022/04/10 10:12:07;;;;;;;6.30;1.00;;;;;;;9.80;49.51;102058.00;5031553;28;20037;-89
2022/04/10 10:14:34;;;;;;;4.45;0.90;;;;;;;9.51;49.45;102060.38;5030220;28;20030;-89
2022/04/10 10:17:01;;;;;;;4.83;1.27;;;;;;;9.58;51.63;102069.16;5024862;28;20025;-88
2022/04/10 10:19:29;;;;;;;4.90;1.00;;;;;;;9.82;51.69;102061.28;5026974;28;20288;-88
2022/04/10 10:21:56;;;;;;;5.53;1.25;;;;;;;10.05;50.74;102052.56;5029208;28;20148;-87
2022/04/10 10:24:24;;;;;;;5.97;1.33;;;;;;;10.45;49.67;102054.78;5022803;28;20033;-87
2022/04/10 10:27:19;;;;;;;4.93;1.20;;;;;;;10.33;49.53;102056.59;5024313;28;20037;-88
2022/04/10 10:29:58;;;;;;;5.28;1.15;;;;;;;10.14;50.20;102056.59;5033616;28;20091;-86
2022/04/10 10:32:36;;;;;;;5.45;1.35;;;;;;;10.21;48.84;102047.69;5016878;28;20117;-88
2022/04/10 10:35:01;;;;;;;7.22;1.05;;;;;;;10.56;49.78;102055.09;5026444;28;20117;-88
2022/04/10 10:37:28;;;;;;;10.87;1.10;;;;;;;11.02;49.62;102053.56;5029318;28;20120;-87
2022/04/10 10:39:54;;;;;;;4.05;1.30;;;;;;;11.47;45.95;102043.34;5033429;28;20030;-86
2022/04/10 10:42:22;;;;;;;1.87;0.80;;;;;;;11.77;47.56;102039.69;5032545;28;20038;-87
2022/04/10 10:44:50;;;;;;;5.57;1.20;;;;;;;12.04;47.46;102052.63;5032923;28;20033;-87
2022/04/10 10:47:24;;;;;;;6.20;1.17;;;;;;;12.22;44.18;102049.78;5038801;28;20020;-87
2022/04/10 10:49:52;;;;;;;3.10;1.00;;;;;;;12.38;44.74;102050.06;5027068;28;20044;-86
2022/04/10 10:52:18;;;;;;;6.45;1.30;;;;;;;12.11;43.09;102058.69;5031235;28;20025;-86
2022/04/10 10:54:52;;;;;;;5.47;1.40;;;;;;;11.89;46.69;102047.72;5017746;28;20040;-86
2022/04/10 10:57:26;;;;;;;6.13;1.45;;;;;;;11.68;46.19;102049.97;5012854;28;20030;-86
2022/04/10 10:59:53;;;;;;;3.67;1.20;;;;;;;11.14;46.46;102060.81;5013314;28;20095;-86
2022/04/10 11:02:20;;;;;;;6.23;1.20;;;;;;;10.66;48.50;102060.69;5015691;28;20509;-86
2022/04/10 11:04:52;;;;;;;3.33;1.10;;;;;;;10.59;47.97;102049.28;5030104;28;20869;-86
2022/04/10 11:07:18;;;;;;;7.45;1.30;;;;;;;10.60;49.06;102053.56;5026656;28;20097;-86
2022/04/10 11:09:58;;;;;;;7.40;1.50;;;;;;;10.58;49.23;102058.34;5025155;28;20116;-86
2022/04/10 11:12:40;;;;;;;6.30;1.42;;;;;;;10.80;50.31;102057.81;5023603;28;20108;-87
2022/04/10 11:15:21;;;;;;;5.35;1.17;;;;;;;11.15;49.96;102047.16;5012648;28;20056;-86
2022/04/10 11:17:48;;;;;;;3.92;1.05;;;;;;;11.34;46.17;102047.06;5016091;28;20021;-86